createdAt,value
2022-09-01T00:00:49.124Z,16.42
2022-09-01T00:03:18.047Z,16.40
2022-09-01T00:05:44.682Z,16.39
2022-09-01T00:08:11.183Z,16.39
2022-09-01T00:10:42.838Z,16.38
2022-09-01T00:13:09.343Z,16.37
2022-09-01T00:15:36.804Z,16.35
2022-09-01T00:18:03.965Z,16.37
2022-09-01T00:20:30.789Z,16.28
2022-09-01T00:22:57.423Z,16.38
2022-09-01T00:25:24.188Z,16.39
2022-09-01T00:27:51.468Z,16.40
2022-09-01T00:30:19.386Z,16.41
2022-09-01T00:32:46.668Z,16.40
2022-09-01T00:35:18.860Z,16.36
2022-09-01T00:37:45.622Z,16.38
2022-09-01T00:40:15.736Z,16.41
2022-09-01T00:42:43.038Z,16.41
2022-09-01T00:45:10.378Z,16.35
2022-09-01T00:47:37.728Z,16.37
2022-09-01T00:50:07.199Z,16.08
2022-09-01T00:52:45.883Z,16.39
2022-09-01T00:55:27.063Z,16.41
2022-09-01T00:57:53.848Z,16.41
2022-09-01T01:00:24.842Z,16.35
2022-09-01T01:02:52.440Z,16.37
2022-09-01T01:05:19.085Z,16.37
2022-09-01T01:07:47.776Z,16.36
2022-09-01T01:10:17.647Z,16.01
2022-09-01T01:12:44.636Z,16.33
2022-09-01T01:15:12.979Z,16.23
2022-09-01T01:17:40.544Z,16.30
2022-09-01T01:20:09.383Z,16.18
2022-09-01T01:23:15.987Z,16.28
2022-09-01T01:25:55.631Z,16.27
2022-09-01T01:28:28.183Z,16.01
2022-09-01T01:31:05.711Z,16.21
2022-09-01T01:33:39.200Z,15.94
2022-09-01T01:36:12.291Z,16.25
2022-09-01T01:38:46.720Z,16.27
2022-09-01T01:41:15.766Z,16.02
2022-09-01T01:43:42.401Z,16.28
2022-09-01T01:46:11.636Z,15.98
2022-09-01T01:48:42.270Z,16.26
2022-09-01T01:51:10.548Z,16.27
2022-09-01T01:53:38.166Z,16.25
2022-09-01T01:56:05.021Z,16.25
2022-09-01T01:58:34.293Z,16.23
2022-09-01T02:01:03.989Z,16.18
2022-09-01T02:03:34.537Z,16.20
2022-09-01T02:06:01.127Z,16.18
2022-09-01T02:08:27.640Z,16.16
2022-09-01T02:10:56.147Z,16.14
2022-09-01T02:13:24.784Z,16.14
2022-09-01T02:15:55.435Z,16.12
2022-09-01T02:18:36.877Z,15.69
2022-09-01T02:21:08.226Z,16.11
2022-09-01T02:23:34.781Z,16.12
2022-09-01T02:26:17.724Z,16.12
2022-09-01T02:28:50.891Z,16.11
2022-09-01T02:31:20.892Z,16.14
2022-09-01T02:33:47.869Z,16.16
2022-09-01T02:36:17.133Z,15.83
2022-09-01T02:38:45.915Z,16.17
2022-09-01T02:41:14.231Z,16.18
2022-09-01T02:43:42.151Z,16.13
2022-09-01T02:46:09.579Z,16.17
2022-09-01T02:48:40.094Z,16.14
2022-09-01T02:51:13.724Z,16.14
2022-09-01T02:53:41.625Z,16.11
2022-09-01T02:56:11.168Z,16.07
2022-09-01T02:58:38.095Z,16.11
2022-09-01T03:01:05.248Z,16.12
2022-09-01T03:03:34.654Z,16.04
2022-09-01T03:06:01.456Z,16.06
2022-09-01T03:08:28.015Z,16.08
2022-09-01T03:10:54.536Z,16.07
2022-09-01T03:13:23.665Z,15.73
2022-09-01T03:15:50.752Z,16.06
2022-09-01T03:18:17.733Z,16.02
2022-09-01T03:20:46.113Z,16.07
2022-09-01T03:23:15.626Z,15.95
2022-09-01T03:25:47.888Z,16.04
2022-09-01T03:28:15.604Z,16.02
2022-09-01T03:30:49.326Z,16.03
2022-09-01T03:33:17.476Z,16.03
2022-09-01T03:35:44.807Z,16.04
2022-09-01T03:38:13.642Z,16.04
2022-09-01T03:40:41.327Z,16.03
2022-09-01T03:43:09.473Z,16.03
2022-09-01T03:45:36.062Z,16.02
2022-09-01T03:48:03.908Z,16.00
2022-09-01T03:50:30.446Z,15.99
2022-09-01T03:52:58.934Z,16.01
2022-09-01T03:55:30.071Z,15.90
2022-09-01T03:58:00.651Z,15.66
2022-09-01T04:00:29.041Z,15.97
2022-09-01T04:02:58.382Z,16.00
2022-09-01T04:05:29.818Z,15.94
2022-09-01T04:07:59.980Z,15.99
2022-09-01T04:10:26.691Z,15.99
2022-09-01T04:12:53.220Z,16.01
2022-09-01T04:15:19.898Z,16.01
2022-09-01T04:17:47.013Z,16.02
2022-09-01T04:20:13.646Z,16.03
2022-09-01T04:22:40.151Z,15.93
2022-09-01T04:25:09.175Z,16.05
2022-09-01T04:27:36.008Z,16.05
2022-09-01T04:30:02.590Z,16.06
2022-09-01T04:32:31.043Z,16.07
2022-09-01T04:35:00.629Z,16.06
2022-09-01T04:37:28.680Z,16.08
2022-09-01T04:39:58.977Z,16.09
2022-09-01T04:42:29.766Z,15.85
2022-09-01T04:44:59.346Z,16.12
2022-09-01T04:47:26.475Z,16.15
2022-09-01T04:49:54.606Z,16.17
2022-09-01T04:52:21.154Z,16.17
2022-09-01T04:54:47.735Z,16.20
2022-09-01T04:57:15.426Z,16.23
2022-09-01T04:59:42.858Z,16.24
2022-09-01T05:02:12.965Z,16.26
2022-09-01T05:04:39.706Z,16.18
2022-09-01T05:07:06.229Z,16.30
2022-09-01T05:09:36.974Z,16.30
2022-09-01T05:12:22.396Z,16.30
2022-09-01T05:14:49.230Z,16.31
2022-09-01T05:17:22.026Z,16.23
2022-09-01T05:19:50.149Z,16.33
2022-09-01T05:22:16.998Z,16.34
2022-09-01T05:24:50.860Z,16.28
2022-09-01T05:27:21.449Z,16.38
2022-09-01T05:29:47.977Z,16.40
2022-09-01T05:32:15.105Z,16.41
2022-09-01T05:34:41.739Z,16.41
2022-09-01T05:37:09.182Z,16.42
2022-09-01T05:39:38.237Z,16.44
2022-09-01T05:42:08.709Z,16.49
2022-09-01T05:44:39.948Z,16.51
2022-09-01T05:47:06.637Z,16.54
2022-09-01T05:49:33.355Z,16.58
2022-09-01T05:52:03.673Z,16.60
2022-09-01T05:54:31.107Z,16.65
2022-09-01T05:57:08.136Z,16.65
2022-09-01T05:59:39.691Z,16.69
2022-09-01T06:02:12.759Z,16.73
2022-09-01T06:04:39.752Z,16.69
2022-09-01T06:07:14.663Z,16.79
2022-09-01T06:09:48.599Z,16.57
2022-09-01T06:12:19.033Z,16.79
2022-09-01T06:14:48.506Z,16.55
2022-09-01T06:17:17.948Z,16.94
2022-09-01T06:19:44.592Z,16.94
2022-09-01T06:22:11.792Z,16.92
2022-09-01T06:24:40.174Z,16.99
2022-09-01T06:27:08.502Z,17.02
2022-09-01T06:29:38.939Z,17.04
2022-09-01T06:32:09.805Z,17.04
2022-09-01T06:34:42.755Z,16.68
2022-09-01T06:37:10.797Z,17.09
2022-09-01T06:39:38.132Z,17.12
2022-09-01T06:42:06.331Z,17.13
2022-09-01T06:44:44.942Z,17.18
2022-09-01T06:47:11.519Z,17.22
2022-09-01T06:49:38.257Z,17.27
2022-09-01T06:52:10.018Z,17.33
2022-09-01T06:54:36.621Z,17.38
2022-09-01T06:59:51.148Z,17.49
2022-09-01T07:08:16.597Z,17.33
2022-09-01T07:16:42.081Z,17.86
2022-09-01T07:19:19.194Z,17.87
2022-09-01T07:22:07.215Z,18.03
2022-09-01T07:24:35.576Z,18.10
2022-09-01T07:27:26.374Z,18.18
2022-09-01T07:30:02.511Z,18.26
2022-09-01T07:32:47.255Z,18.33
2022-09-01T07:35:18.492Z,18.43
2022-09-01T07:43:37.208Z,18.71
2022-09-01T07:46:36.608Z,18.75
2022-09-01T07:49:29.301Z,18.90
2022-09-01T07:51:43.224Z,18.85
2022-09-01T07:54:09.837Z,19.10
2022-09-01T07:56:40.241Z,19.18
2022-09-01T07:59:09.154Z,19.26
2022-09-01T08:01:47.785Z,19.34
2022-09-01T08:04:15.126Z,19.43
2022-09-01T08:06:42.899Z,19.51
2022-09-01T08:09:11.711Z,19.58
2022-09-01T08:12:01.045Z,19.67
2022-09-01T08:14:25.978Z,19.75
2022-09-01T08:16:53.143Z,19.84
2022-09-01T08:19:20.356Z,19.85
2022-09-01T08:22:05.427Z,20.00
2022-09-01T08:24:42.840Z,20.06
2022-09-01T08:27:09.645Z,20.17
2022-09-01T08:29:36.161Z,20.20
2022-09-01T08:32:03.083Z,20.34
2022-09-01T08:34:33.007Z,20.44
2022-09-01T08:37:00.227Z,20.56
2022-09-01T08:39:27.696Z,20.66
2022-09-01T08:41:59.590Z,20.75
2022-09-01T08:45:05.894Z,20.86
2022-09-01T08:47:50.426Z,20.99
2022-09-01T08:50:19.471Z,21.07
2022-09-01T08:53:33.938Z,21.23
2022-09-01T08:56:01.087Z,21.39
2022-09-01T08:58:30.997Z,21.50
2022-09-01T09:01:52.117Z,21.64
2022-09-01T09:04:41.131Z,21.82
2022-09-01T09:07:41.056Z,21.87
2022-09-01T09:10:26.467Z,22.04
2022-09-01T09:13:12.012Z,22.21
2022-09-01T09:16:07.430Z,22.31
2022-09-01T09:18:55.702Z,22.50
2022-09-01T09:21:32.444Z,22.60
2022-09-01T09:24:21.734Z,22.84
2022-09-01T09:26:54.734Z,22.80
2022-09-01T09:29:21.534Z,23.16
2022-09-01T09:32:03.802Z,23.24
2022-09-01T09:34:36.499Z,23.34
2022-09-01T09:37:25.408Z,23.47
2022-09-01T09:40:14.871Z,23.59
2022-09-01T09:45:21.535Z,23.78
2022-09-01T09:47:48.499Z,23.82
2022-09-01T09:50:29.065Z,23.94
2022-09-01T09:53:17.579Z,23.79
2022-09-01T09:56:09.547Z,24.17
2022-09-01T09:58:41.633Z,24.39
2022-09-01T10:01:12.973Z,24.71
2022-09-01T10:03:44.283Z,24.88
2022-09-01T10:06:35.074Z,24.77
2022-09-01T10:09:06.471Z,24.91
2022-09-01T10:11:41.292Z,25.27
2022-09-01T10:14:35.413Z,25.38
2022-09-01T10:17:28.597Z,25.66
2022-09-01T10:20:11.374Z,25.66
2022-09-01T10:22:39.428Z,26.25
2022-09-01T10:25:10.352Z,26.24
2022-09-01T10:27:41.710Z,26.69
2022-09-01T10:30:21.012Z,26.61
2022-09-01T10:32:55.693Z,26.94
2022-09-01T10:35:31.506Z,27.07
2022-09-01T10:38:00.958Z,27.14
2022-09-01T10:40:31.180Z,27.31
2022-09-01T10:42:59.720Z,27.45
2022-09-01T10:48:30.853Z,27.78
2022-09-01T10:51:18.476Z,27.91
2022-09-01T10:53:47.605Z,27.96
2022-09-01T10:56:35.360Z,27.97
2022-09-01T10:59:32.730Z,28.00
2022-09-01T11:02:25.922Z,27.72
2022-09-01T11:04:58.972Z,28.00
2022-09-01T11:07:50.275Z,27.85
2022-09-01T11:10:39.888Z,27.99
2022-09-01T11:13:58.107Z,27.86
2022-09-01T11:16:48.215Z,27.79
2022-09-01T11:19:40.406Z,27.72
2022-09-01T11:22:14.130Z,27.65
2022-09-01T11:24:41.381Z,27.59
2022-09-01T11:27:11.907Z,27.45
2022-09-01T11:30:06.672Z,27.42
2022-09-01T11:32:38.156Z,27.45
2022-09-01T11:35:17.501Z,27.18
2022-09-01T11:37:48.718Z,27.42
2022-09-01T11:40:25.998Z,27.36
2022-09-01T11:42:58.825Z,27.40
2022-09-01T11:45:29.798Z,27.42
2022-09-01T11:48:01.917Z,27.41
2022-09-01T11:50:34.946Z,27.45
2022-09-01T11:53:08.957Z,27.30
2022-09-01T11:55:38.846Z,27.44
2022-09-01T11:58:06.486Z,27.44
2022-09-01T12:00:36.710Z,27.18
2022-09-01T12:03:03.438Z,27.48
2022-09-01T12:05:36.724Z,27.44
2022-09-01T12:08:11.507Z,27.24
2022-09-01T12:10:39.200Z,27.41
2022-09-01T12:13:08.632Z,27.14
2022-09-01T12:15:37.533Z,27.36
2022-09-01T12:18:19.495Z,27.25
2022-09-01T12:23:37.950Z,27.18
2022-09-01T12:26:08.437Z,27.12
2022-09-01T12:28:35.591Z,27.17
2022-09-01T12:31:14.989Z,26.79
2022-09-01T12:33:43.927Z,26.77
2022-09-01T12:36:31.299Z,26.77
2022-09-01T12:39:17.784Z,26.88
2022-09-01T12:41:47.257Z,26.64
2022-09-01T12:44:26.382Z,26.72
2022-09-01T12:46:53.034Z,26.77
2022-09-01T12:49:23.862Z,26.66
2022-09-01T12:52:06.395Z,26.46
2022-09-01T12:54:32.941Z,26.75
2022-09-01T12:56:59.451Z,26.79
2022-09-01T12:59:36.049Z,26.80
2022-09-01T13:02:35.618Z,26.83
2022-09-01T13:05:21.075Z,26.87
2022-09-01T13:07:48.068Z,26.95
2022-09-01T13:10:14.798Z,26.92
2022-09-01T13:12:45.676Z,26.95
2022-09-01T13:15:15.647Z,26.99
2022-09-01T13:17:42.180Z,26.98
2022-09-01T13:20:09.267Z,27.09
2022-09-01T13:22:35.913Z,27.12
2022-09-01T13:25:02.604Z,27.15
2022-09-01T13:27:29.137Z,27.12
2022-09-01T13:29:55.756Z,27.13
2022-09-01T13:32:23.851Z,27.13
2022-09-01T13:34:53.280Z,26.88
2022-09-01T13:37:21.532Z,26.85
2022-09-01T13:39:48.181Z,27.04
2022-09-01T13:42:16.298Z,26.97
2022-09-01T13:44:44.110Z,26.90
2022-09-01T13:50:09.952Z,26.86
2022-09-01T13:52:43.233Z,26.62
2022-09-01T13:55:11.888Z,26.67
2022-09-01T13:57:38.570Z,27.09
2022-09-01T14:00:07.959Z,27.19
2022-09-01T14:02:41.494Z,27.25
2022-09-01T14:05:08.796Z,27.24
2022-09-01T14:07:35.355Z,27.31
2022-09-01T14:10:01.943Z,27.36
2022-09-01T14:12:28.495Z,27.41
2022-09-01T14:15:12.427Z,27.38
2022-09-01T14:17:41.723Z,27.38
2022-09-01T14:20:12.454Z,27.35
2022-09-01T14:22:39.796Z,27.37
2022-09-01T14:25:07.527Z,27.42
2022-09-01T14:27:34.060Z,27.55
2022-09-01T14:30:00.581Z,27.75
2022-09-01T14:32:27.319Z,27.99
2022-09-01T14:34:54.286Z,28.08
2022-09-01T14:37:21.487Z,28.23
2022-09-01T14:39:55.665Z,28.33
2022-09-01T14:42:23.308Z,28.44
2022-09-01T14:44:49.801Z,28.56
2022-09-01T14:47:19.282Z,28.56
2022-09-01T14:49:46.550Z,28.58
2022-09-01T14:52:13.106Z,28.57
2022-09-01T14:54:41.753Z,28.33
2022-09-01T14:59:55.629Z,28.31
2022-09-01T15:02:22.182Z,28.21
2022-09-01T15:04:48.723Z,28.04
2022-09-01T15:07:15.315Z,27.88
2022-09-01T15:09:41.823Z,27.76
2022-09-01T15:12:08.487Z,27.66
2022-09-01T15:14:35.514Z,27.56
2022-09-01T15:17:02.091Z,27.56
2022-09-01T15:19:28.635Z,27.56
2022-09-01T15:21:55.217Z,27.55
2022-09-01T15:24:21.712Z,27.55
2022-09-01T15:26:48.322Z,27.57
2022-09-01T15:29:14.951Z,27.57
2022-09-01T15:31:43.936Z,27.29
2022-09-01T15:34:11.049Z,27.53
2022-09-01T15:36:39.576Z,27.44
2022-09-01T15:39:06.876Z,27.51
2022-09-01T15:41:34.022Z,27.47
2022-09-01T15:44:03.414Z,27.16
2022-09-01T15:46:30.069Z,27.39
2022-09-01T15:48:56.592Z,27.28
2022-09-01T15:51:23.088Z,27.18
2022-09-01T15:53:50.957Z,27.03
2022-09-01T15:56:17.781Z,27.04
2022-09-01T15:59:00.735Z,26.99
2022-09-01T16:01:30.197Z,26.91
2022-09-01T16:03:56.992Z,26.86
2022-09-01T16:06:25.066Z,26.61
2022-09-01T16:08:51.876Z,26.82
2022-09-01T16:11:18.436Z,26.81
2022-09-01T16:13:45.212Z,26.77
2022-09-01T16:16:40.135Z,26.69
2022-09-01T16:19:26.166Z,26.60
2022-09-01T16:22:27.348Z,26.55
2022-09-01T16:24:59.132Z,26.45
2022-09-01T16:27:31.844Z,26.14
2022-09-01T16:30:07.518Z,26.38
2022-09-01T16:32:35.461Z,26.38
2022-09-01T16:35:02.058Z,26.37
2022-09-01T16:37:53.124Z,26.30
2022-09-01T16:40:25.659Z,26.35
2022-09-01T16:43:00.950Z,26.31
2022-09-01T16:45:47.044Z,26.29
2022-09-01T16:48:30.420Z,26.00
2022-09-01T16:51:34.273Z,26.26
2022-09-01T16:54:09.841Z,25.92
2022-09-01T16:56:48.525Z,26.09
2022-09-01T16:59:48.769Z,26.01
2022-09-01T17:02:29.915Z,25.90
2022-09-01T17:05:08.488Z,25.75
2022-09-01T17:07:44.107Z,25.63
2022-09-01T17:10:30.151Z,25.29
2022-09-01T17:12:57.966Z,25.46
2022-09-01T17:15:45.959Z,25.06
2022-09-01T17:18:22.394Z,25.28
2022-09-01T17:20:58.267Z,25.17
2022-09-01T17:23:31.318Z,24.85
2022-09-01T17:26:07.334Z,24.71
2022-09-01T17:28:49.252Z,24.63
2022-09-01T17:31:53.357Z,24.75
2022-09-01T17:34:29.977Z,24.68
2022-09-01T17:37:26.372Z,24.61
2022-09-01T17:40:32.645Z,24.20
2022-09-01T17:43:17.491Z,24.42
2022-09-01T17:45:59.499Z,24.27
2022-09-01T17:48:37.888Z,24.32
2022-09-01T17:51:34.891Z,24.18
2022-09-01T17:54:14.776Z,24.14
2022-09-01T17:56:44.091Z,24.07
2022-09-01T17:59:40.762Z,24.00
2022-09-01T18:02:19.141Z,23.96
2022-09-01T18:05:04.116Z,23.91
2022-09-01T18:08:09.302Z,23.84
2022-09-01T18:11:06.880Z,23.77
2022-09-01T18:13:59.776Z,23.72
2022-09-01T18:16:30.569Z,23.68
2022-09-01T18:21:37.563Z,23.52
2022-09-01T18:24:15.572Z,23.53
2022-09-01T18:26:46.931Z,23.22
2022-09-01T18:29:13.587Z,23.44
2022-09-01T18:32:07.928Z,23.38
2022-09-01T18:35:21.893Z,23.32
2022-09-01T18:38:08.686Z,23.26
2022-09-01T18:41:11.180Z,23.18
2022-09-01T18:43:44.775Z,23.11
2022-09-01T18:46:25.244Z,22.67
2022-09-01T18:49:01.592Z,23.00
2022-09-01T18:51:55.058Z,22.59
2022-09-01T18:54:34.031Z,22.75
2022-09-01T18:57:11.691Z,22.69
2022-09-01T19:00:03.128Z,22.73
2022-09-01T19:02:48.267Z,22.68
2022-09-01T19:05:37.521Z,22.56
2022-09-01T19:08:52.867Z,22.54
2022-09-01T19:11:37.499Z,22.50
2022-09-01T19:14:20.145Z,22.46
2022-09-01T19:17:12.247Z,22.37
2022-09-01T19:19:58.943Z,21.96
2022-09-01T19:23:05.712Z,22.25
2022-09-01T19:25:32.363Z,22.20
2022-09-01T19:28:02.427Z,22.08
2022-09-01T19:30:29.281Z,22.10
2022-09-01T19:32:57.568Z,22.06
2022-09-01T19:35:25.068Z,22.00
2022-09-01T19:37:51.600Z,21.99
2022-09-01T19:40:25.360Z,21.89
2022-09-01T19:43:02.902Z,21.88
2022-09-01T19:45:50.849Z,21.85
2022-09-01T19:48:22.672Z,21.83
2022-09-01T19:50:55.810Z,21.48
2022-09-01T19:53:40.625Z,21.72
2022-09-01T19:56:16.008Z,21.68
2022-09-01T19:58:52.590Z,21.50
2022-09-01T20:01:40.792Z,21.54
2022-09-01T20:04:41.081Z,21.50
2022-09-01T20:07:35.564Z,21.39
2022-09-01T20:10:21.644Z,21.35
2022-09-01T20:13:25.762Z,21.33
2022-09-01T20:16:22.432Z,21.27
2022-09-01T20:19:11.630Z,21.18
2022-09-01T20:21:44.507Z,20.85
2022-09-01T20:24:23.309Z,20.81
2022-09-01T20:27:10.064Z,21.08
2022-09-01T20:29:52.966Z,20.71
2022-09-01T20:32:26.892Z,20.91
2022-09-01T20:34:59.389Z,20.95
2022-09-01T20:37:37.197Z,20.64
2022-09-01T20:40:11.685Z,20.87
2022-09-01T20:43:02.391Z,20.82
2022-09-01T20:45:30.318Z,20.78
2022-09-01T20:47:59.424Z,20.67
2022-09-01T20:50:55.122Z,20.68
2022-09-01T20:53:24.648Z,20.65
2022-09-01T20:55:59.153Z,20.49
2022-09-01T20:58:25.644Z,20.54
2022-09-01T21:01:21.595Z,20.47
2022-09-01T21:04:03.075Z,20.43
2022-09-01T21:06:51.738Z,20.35
2022-09-01T21:09:42.031Z,19.96
2022-09-01T21:12:28.111Z,20.23
2022-09-01T21:15:04.713Z,20.03
2022-09-01T21:17:49.218Z,20.16
2022-09-01T21:20:27.527Z,20.05
2022-09-01T21:22:55.146Z,20.06
2022-09-01T21:25:21.661Z,19.91
2022-09-01T21:27:52.234Z,19.90
2022-09-01T21:30:19.648Z,19.91
2022-09-01T21:32:46.434Z,19.87
2022-09-01T21:35:16.983Z,19.33
2022-09-01T21:37:43.510Z,19.77
2022-09-01T21:40:11.465Z,19.66
2022-09-01T21:42:45.614Z,19.41
2022-09-01T21:45:14.382Z,19.32
2022-09-01T21:47:42.544Z,19.62
2022-09-01T21:50:10.313Z,19.59
2022-09-01T21:52:36.935Z,19.55
2022-09-01T21:55:04.838Z,19.51
2022-09-01T21:57:31.337Z,19.49
2022-09-01T21:59:57.935Z,19.47
2022-09-01T22:02:28.292Z,19.45
2022-09-01T22:04:55.343Z,19.42
2022-09-01T22:07:21.823Z,19.41
2022-09-01T22:09:48.383Z,19.37
2022-09-01T22:12:14.890Z,19.31
2022-09-01T22:14:41.436Z,19.32
2022-09-01T22:17:08.035Z,19.29
2022-09-01T22:19:35.662Z,19.27
2022-09-01T22:22:03.369Z,19.17
2022-09-01T22:24:30.071Z,19.18
2022-09-01T22:26:56.616Z,19.18
2022-09-01T22:29:23.264Z,19.07
2022-09-01T22:31:49.789Z,19.12
2022-09-01T22:34:16.418Z,19.09
2022-09-01T22:36:47.817Z,19.05
2022-09-01T22:39:15.938Z,19.03
2022-09-01T22:41:42.479Z,18.72
2022-09-01T22:44:10.177Z,18.99
2022-09-01T22:46:38.529Z,18.96
2022-09-01T22:49:05.890Z,18.88
2022-09-01T22:51:33.099Z,18.88
2022-09-01T22:53:59.653Z,18.56
2022-09-01T22:56:30.255Z,18.48
2022-09-01T22:58:59.935Z,18.75
2022-09-01T23:01:28.712Z,18.79
2022-09-01T23:03:55.297Z,18.75
2022-09-01T23:06:28.102Z,18.73
2022-09-01T23:08:56.790Z,18.38
2022-09-01T23:11:23.847Z,18.68
2022-09-01T23:13:50.746Z,18.66
2022-09-01T23:16:20.279Z,18.63
2022-09-01T23:18:48.271Z,18.61
2022-09-01T23:21:17.178Z,18.58
2022-09-01T23:23:44.673Z,18.54
2022-09-01T23:26:13.716Z,18.53
2022-09-01T23:28:41.868Z,18.49
2022-09-01T23:31:11.607Z,18.47
2022-09-01T23:33:38.246Z,18.45
2022-09-01T23:36:08.739Z,18.41
2022-09-01T23:38:36.585Z,18.38
2022-09-01T23:41:07.653Z,18.40
2022-09-01T23:43:34.510Z,18.39
2022-09-01T23:46:01.066Z,18.40
2022-09-01T23:48:27.992Z,18.39
2022-09-01T23:51:00.335Z,18.02
2022-09-01T23:53:29.668Z,18.30
2022-09-01T23:55:59.611Z,18.10
2022-09-01T23:58:27.145Z,18.38
